Time;durP1;ratioP1;P1;durP2;ratioP2;P2;SDS_P1;SDS_P2;PMS_P1;PMS_P2;Temp;Humidity;BMP_temperature;BMP_pressure;BME280_temperature;BME280_humidity;BME280_pressure;Samples;Min_cycle;Max_cycle;Signal;HPM_P1;HPM_P2
2023/05/25 00:08:50;;;;;;;79.00;14.00;;;10.00;99.90;;;;;;4654139;27;20230;-84
2023/05/25 00:15:13;;;;;;;75.90;12.65;;;10.00;99.90;;;;;;4832565;29;20221;-84
2023/05/25 00:17:39;;;;;;;77.25;16.05;;;10.00;99.90;;;;;;4919147;23;20218;-85
2023/05/25 00:20:36;;;;;;;81.28;19.42;;;9.90;99.90;;;;;;4890255;29;20181;-84
2023/05/25 00:23:15;;;;;;;78.43;12.80;;;9.90;99.90;;;;;;4887005;29;20186;-85
2023/05/25 00:26:16;;;;;;;80.47;19.70;;;9.90;99.90;;;;;;4889620;29;20233;-84
2023/05/25 00:28:55;;;;;;;78.65;15.07;;;9.90;99.90;;;;;;4890313;29;20177;-85
2023/05/25 00:32:01;;;;;;;78.68;22.15;;;9.80;99.90;;;;;;4890440;29;20180;-84
2023/05/25 00:34:52;;;;;;;80.60;26.15;;;9.70;99.90;;;;;;4890334;29;20155;-84
2023/05/25 00:37:46;;;;;;;77.10;20.88;;;9.60;99.90;;;;;;4889690;29;20190;-84
2023/05/25 00:40:39;;;;;;;80.05;20.13;;;9.50;99.90;;;;;;4863355;29;20274;-84
2023/05/25 00:43:10;;;;;;;81.13;17.67;;;9.60;99.90;;;;;;4890684;29;20155;-84
2023/05/25 00:46:06;;;;;;;81.95;21.65;;;9.80;99.90;;;;;;4889841;29;20197;-84
2023/05/25 00:48:46;;;;;;;78.13;26.45;;;10.00;99.90;;;;;;4889412;29;20183;-84
2023/05/25 00:54:26;;;;;;;78.25;23.48;;;9.90;99.90;;;;;;4868377;29;20181;-84
2023/05/25 00:57:08;;;;;;;81.45;21.77;;;9.80;99.90;;;;;;4891834;29;20222;-84
2023/05/25 01:00:03;;;;;;;84.20;24.48;;;9.70;99.90;;;;;;4892573;29;20179;-84
2023/05/25 01:02:32;;;;;;;78.32;25.33;;;9.80;99.90;;;;;;4892066;29;20176;-84
2023/05/25 01:05:22;;;;;;;;;;;;;;;;;;;;;
2023/05/25 01:08:02;;;;;;;84.60;28.08;;;9.60;99.90;;;;;;4892428;29;20273;-84
2023/05/25 01:11:06;;;;;;;79.38;25.20;;;9.50;99.90;;;;;;4891780;29;20177;-85
2023/05/25 01:13:57;;;;;;;78.38;30.02;;;9.40;99.90;;;;;;4861792;29;20178;-84
2023/05/25 01:16:50;;;;;;;81.10;26.98;;;9.40;99.90;;;;;;4892775;29;20248;-84
2023/05/25 01:19:24;;;;;;;86.07;32.40;;;9.50;99.90;;;;;;4893229;29;20262;-84
2023/05/25 01:22:10;;;;;;;90.35;35.47;;;9.60;99.90;;;;;;4893388;29;20174;-84
2023/05/25 01:25:38;;;;;;;;;;;;;;;;;;;;;
2023/05/25 01:28:37;;;;;;;90.28;39.35;;;9.50;99.90;;;;;;4923775;23;20583;-84
2023/05/25 01:34:09;;;;;;;84.93;33.15;;;9.30;99.90;;;;;;4890261;29;20185;-84
2023/05/25 01:36:43;;;;;;;84.07;40.00;;;9.20;99.90;;;;;;4892692;29;20738;-85
2023/05/25 01:39:17;;;;;;;84.57;38.00;;;9.10;99.90;;;;;;4954134;23;20221;-84
2023/05/25 01:42:35;;;;;;;84.63;37.47;;;9.00;99.90;;;;;;5144199;23;20218;-85
2023/05/25 01:45:18;;;;;;;81.55;37.03;;;8.90;99.90;;;;;;4835984;29;20196;-84
2023/05/25 01:47:59;;;;;;;86.50;40.90;;;8.90;99.90;;;;;;4852675;29;20196;-84
2023/05/25 01:51:05;;;;;;;83.88;40.45;;;8.80;99.90;;;;;;4871393;29;20179;-84
2023/05/25 01:54:30;;;;;;;;;;;;;;;;;;;;;
2023/05/25 01:57:06;;;;;;;86.38;46.22;;;8.80;99.90;;;;;;4849979;29;20286;-84
2023/05/25 01:59:52;;;;;;;85.30;48.38;;;8.70;99.90;;;;;;4873247;29;20155;-85
2023/05/25 02:03:05;;;;;;;90.55;40.78;;;8.70;99.90;;;;;;4873732;29;20151;-84
2023/05/25 02:05:51;;;;;;;84.85;43.25;;;8.70;99.90;;;;;;4870943;29;20631;-84
2023/05/25 02:08:42;;;;;;;85.53;46.55;;;8.70;99.90;;;;;;4867967;29;20184;-84
2023/05/25 02:12:02;;;;;;;86.70;43.10;;;8.50;99.90;;;;;;4872674;29;20171;-84
2023/05/25 02:15:00;;;;;;;86.32;42.17;;;8.60;99.90;;;;;;4871470;29;20226;-84
2023/05/25 02:21:22;;;;;;;;;;;;;;;;;;;;;
2023/05/25 02:28:07;;;;;;;83.15;39.15;;;8.60;99.90;;;;;;4887901;29;20222;-84
2023/05/25 02:31:12;;;;;;;84.82;39.92;;;8.50;99.90;;;;;;4879419;29;20217;-84
2023/05/25 02:33:40;;;;;;;84.00;40.88;;;8.40;99.90;;;;;;4891607;29;20512;-84
2023/05/25 02:36:09;;;;;;;83.07;42.88;;;8.40;99.90;;;;;;4890108;29;20250;-84
2023/05/25 02:38:50;;;;;;;87.10;42.53;;;8.40;99.90;;;;;;4890943;29;20170;-84
2023/05/25 02:41:20;;;;;;;85.75;40.33;;;8.40;99.90;;;;;;4891044;29;20151;-84
2023/05/25 02:44:06;;;;;;;86.85;38.95;;;8.40;99.90;;;;;;4890587;29;20167;-84
2023/05/25 02:46:53;;;;;;;86.55;42.92;;;8.40;99.90;;;;;;4890959;29;20227;-84
2023/05/25 02:49:24;;;;;;;87.28;43.95;;;8.30;99.90;;;;;;4891137;29;20187;-84
2023/05/25 02:52:08;;;;;;;83.55;37.45;;;8.30;99.90;;;;;;4891397;29;20173;-84
2023/05/25 02:58:18;;;;;;;85.03;44.53;;;8.30;99.90;;;;;;4847274;29;20191;-84
2023/05/25 03:01:04;;;;;;;83.88;41.65;;;8.20;99.90;;;;;;4888729;29;20221;-84
2023/05/25 03:03:56;;;;;;;;;;;;;;;;;;;;;
2023/05/25 03:07:02;;;;;;;83.80;37.50;;;8.20;99.90;;;;;;4851196;29;20302;-85
2023/05/25 03:09:55;;;;;;;90.55;43.38;;;8.20;99.90;;;;;;4851558;29;20163;-84
2023/05/25 03:12:40;;;;;;;83.57;37.72;;;8.30;99.90;;;;;;4882439;29;20553;-84
2023/05/25 03:15:42;;;;;;;80.20;37.70;;;8.40;99.90;;;;;;4889690;29;20170;-84
2023/05/25 03:18:11;;;;;;;88.03;46.40;;;8.30;99.90;;;;;;4877488;29;20261;-84
2023/05/25 03:20:46;;;;;;;87.30;44.88;;;8.20;99.90;;;;;;4889755;29;20230;-84
2023/05/25 03:23:45;;;;;;;87.22;46.92;;;8.10;99.90;;;;;;4890099;29;20170;-84
2023/05/25 03:26:27;;;;;;;84.05;43.17;;;8.00;99.90;;;;;;4889149;29;20213;-84
2023/05/25 03:29:27;;;;;;;88.13;45.78;;;8.00;99.90;;;;;;4888974;29;20234;-84
2023/05/25 03:32:25;;;;;;;;;;;;;;;;;;;;;
2023/05/25 03:34:59;;;;;;;83.68;41.75;;;8.10;99.90;;;;;;4885974;29;20246;-84
2023/05/25 03:37:40;;;;;;;87.13;40.35;;;8.10;99.90;;;;;;4888283;29;20221;-84
2023/05/25 03:40:08;;;;;;;87.70;39.58;;;8.10;99.90;;;;;;4944210;23;20233;-79
2023/05/25 03:42:34;;;;;;;84.30;38.58;;;8.10;99.90;;;;;;4880347;29;20170;-79
2023/05/25 03:45:00;;;;;;;87.65;43.65;;;8.10;99.90;;;;;;4881691;29;20171;-79
2023/05/25 03:47:25;;;;;;;91.67;47.43;;;8.00;99.90;;;;;;4880427;29;20296;-79
2023/05/25 03:49:51;;;;;;;87.03;41.50;;;8.10;99.90;;;;;;4881872;29;20182;-79
2023/05/25 03:52:16;;;;;;;82.17;36.90;;;8.20;99.90;;;;;;4882592;29;20531;-79
2023/05/25 03:54:42;;;;;;;80.20;28.53;;;8.30;99.90;;;;;;4882684;29;20672;-79
2023/05/25 03:57:08;;;;;;;82.37;31.20;;;8.30;99.90;;;;;;4880821;29;20253;-79
2023/05/25 03:59:33;;;;;;;86.93;29.37;;;8.30;99.90;;;;;;4881808;29;20223;-79
2023/05/25 04:01:59;;;;;;;82.30;41.40;;;8.30;99.90;;;;;;4881992;29;20178;-80
2023/05/25 04:04:26;;;;;;;84.23;39.40;;;8.30;99.90;;;;;;4880566;29;20672;-79
2023/05/25 04:06:52;;;;;;;80.20;37.72;;;8.40;99.90;;;;;;4880565;29;20610;-80
2023/05/25 04:09:18;;;;;;;83.38;34.17;;;8.40;99.90;;;;;;4881773;29;20266;-79
2023/05/25 04:11:45;;;;;;;85.07;35.90;;;8.50;99.90;;;;;;4881681;29;20202;-79
2023/05/25 04:14:11;;;;;;;81.65;35.25;;;8.40;99.90;;;;;;4880737;29;20419;-79
2023/05/25 04:16:39;;;;;;;81.80;30.63;;;8.40;99.90;;;;;;4881944;29;20249;-79
2023/05/25 04:19:04;;;;;;;83.13;34.30;;;8.50;99.90;;;;;;4881131;29;20514;-79
2023/05/25 04:21:31;;;;;;;80.17;31.23;;;8.50;99.90;;;;;;4881732;29;20654;-79
2023/05/25 04:23:56;;;;;;;83.93;33.03;;;8.50;99.90;;;;;;4881550;29;20414;-79
2023/05/25 04:26:25;;;;;;;84.83;29.77;;;8.50;99.90;;;;;;4880403;29;20214;-79
2023/05/25 04:28:53;;;;;;;82.57;32.35;;;8.50;99.90;;;;;;4881108;29;20266;-79
2023/05/25 04:31:19;;;;;;;81.32;29.92;;;8.50;99.90;;;;;;4885192;29;20547;-79
2023/05/25 04:33:45;;;;;;;80.63;30.48;;;8.50;99.90;;;;;;4885199;29;20648;-80
2023/05/25 04:36:13;;;;;;;81.20;31.33;;;8.60;99.90;;;;;;4883886;29;20572;-79
2023/05/25 04:38:39;;;;;;;86.03;33.15;;;8.70;99.90;;;;;;4883121;29;20178;-80
2023/05/25 04:41:05;;;;;;;84.07;39.72;;;8.70;99.90;;;;;;4884230;29;20169;-79
2023/05/25 04:43:31;;;;;;;87.35;38.65;;;8.80;99.90;;;;;;4882908;29;20179;-79
2023/05/25 04:45:58;;;;;;;88.78;32.35;;;9.10;99.90;;;;;;4884041;29;20274;-79
2023/05/25 04:48:27;;;;;;;81.07;28.05;;;9.30;99.90;;;;;;4882812;29;20554;-79
2023/05/25 04:50:54;;;;;;;82.47;26.17;;;9.60;99.90;;;;;;4884260;29;20163;-79
2023/05/25 04:53:21;;;;;;;79.80;26.80;;;9.80;99.90;;;;;;4883921;29;20175;-79
2023/05/25 04:55:48;;;;;;;79.40;20.05;;;10.20;99.90;;;;;;4884238;29;20232;-79
2023/05/25 04:58:16;;;;;;;78.65;13.90;;;10.50;99.90;;;;;;4884246;29;20171;-79
2023/05/25 05:00:42;;;;;;;75.82;13.00;;;10.60;99.90;;;;;;4882837;29;20591;-79
2023/05/25 05:03:07;;;;;;;73.27;12.10;;;10.70;99.90;;;;;;4884216;29;20164;-79
2023/05/25 05:05:34;;;;;;;76.43;11.37;;;10.90;99.90;;;;;;4884514;29;20205;-79
2023/05/25 05:08:02;;;;;;;76.88;12.32;;;11.00;99.90;;;;;;4883846;29;20189;-79
2023/05/25 05:10:28;;;;;;;80.50;12.68;;;11.10;99.90;;;;;;4884516;29;20194;-79
2023/05/25 05:12:53;;;;;;;75.70;10.70;;;11.20;99.90;;;;;;4884473;29;20181;-79
2023/05/25 05:15:19;;;;;;;77.40;11.67;;;11.30;99.90;;;;;;4883812;29;20686;-79
2023/05/25 05:17:45;;;;;;;77.97;11.47;;;11.30;99.90;;;;;;4883715;29;20659;-79
2023/05/25 05:20:11;;;;;;;80.47;12.10;;;11.30;99.90;;;;;;4883620;29;20167;-78
2023/05/25 05:22:37;;;;;;;79.20;13.60;;;11.30;99.90;;;;;;4882840;29;20419;-79
2023/05/25 05:25:04;;;;;;;81.28;11.40;;;11.40;99.90;;;;;;4882555;29;20439;-79
2023/05/25 05:27:29;;;;;;;78.00;12.57;;;11.40;99.90;;;;;;4883480;29;20241;-79
2023/05/25 05:29:55;;;;;;;84.50;15.47;;;11.50;99.90;;;;;;4883283;29;20173;-78
2023/05/25 05:32:21;;;;;;;82.87;14.23;;;11.30;99.90;;;;;;4883581;29;20166;-79
2023/05/25 05:34:46;;;;;;;87.03;12.43;;;11.30;99.90;;;;;;4883478;29;20183;-78
2023/05/25 05:37:12;;;;;;;77.83;13.40;;;11.30;99.90;;;;;;4883841;29;20186;-79
2023/05/25 05:39:38;;;;;;;89.73;15.73;;;11.30;99.90;;;;;;4883032;29;20660;-79
2023/05/25 05:42:04;;;;;;;80.77;14.40;;;11.30;99.90;;;;;;4882490;29;20175;-79
2023/05/25 05:44:29;;;;;;;83.67;15.37;;;11.40;99.90;;;;;;4883638;29;20713;-79
2023/05/25 05:46:59;;;;;;;90.20;16.17;;;11.50;99.90;;;;;;4882649;29;20998;-79
2023/05/25 05:49:31;;;;;;;84.13;16.80;;;11.40;99.90;;;;;;4883648;29;20181;-79
2023/05/25 05:51:57;;;;;;;83.70;16.52;;;11.50;99.90;;;;;;4883973;29;20298;-79
2023/05/25 05:54:23;;;;;;;84.95;18.90;;;11.50;99.90;;;;;;4883982;29;20171;-79
2023/05/25 05:56:49;;;;;;;83.60;20.20;;;11.50;99.90;;;;;;4883459;29;20535;-79
2023/05/25 05:59:15;;;;;;;86.63;19.55;;;11.60;99.90;;;;;;4883181;29;20571;-79
2023/05/25 06:01:41;;;;;;;80.30;21.70;;;11.60;99.90;;;;;;4882336;29;20177;-79
2023/05/25 06:04:07;;;;;;;91.87;19.10;;;11.70;99.90;;;;;;4883706;29;20419;-79
2023/05/25 06:06:33;;;;;;;94.23;19.33;;;11.70;99.90;;;;;;4883325;29;20206;-79
2023/05/25 06:09:03;;;;;;;88.38;17.98;;;11.80;99.90;;;;;;4882464;29;20177;-79
2023/05/25 06:11:30;;;;;;;90.38;17.90;;;11.80;99.90;;;;;;4883922;29;20159;-79
2023/05/25 06:13:55;;;;;;;79.85;17.20;;;11.90;99.90;;;;;;4883808;29;20170;-80
2023/05/25 06:16:21;;;;;;;77.70;15.97;;;11.90;99.90;;;;;;4883281;29;20194;-79
2023/05/25 06:18:46;;;;;;;86.40;18.33;;;11.90;99.90;;;;;;4882569;29;20174;-81
2023/05/25 06:21:12;;;;;;;96.00;19.80;;;12.00;99.90;;;;;;4885037;29;20226;-81
2023/05/25 06:23:38;;;;;;;84.37;18.17;;;12.00;99.90;;;;;;4884697;29;20181;-80
2023/05/25 06:26:04;;;;;;;83.10;16.00;;;12.10;99.90;;;;;;4883196;29;20210;-80
2023/05/25 06:28:30;;;;;;;85.10;15.00;;;12.10;99.90;;;;;;4883824;29;20174;-80
2023/05/25 06:30:56;;;;;;;84.60;15.03;;;12.10;99.90;;;;;;4883751;29;20151;-79
2023/05/25 06:33:22;;;;;;;80.20;14.47;;;12.20;99.90;;;;;;4883142;29;20423;-79
2023/05/25 06:35:48;;;;;;;83.70;13.00;;;12.20;99.90;;;;;;4881803;29;20195;-79
2023/05/25 06:38:14;;;;;;;86.60;13.90;;;12.30;99.90;;;;;;4881724;29;20178;-79
2023/05/25 06:40:40;;;;;;;84.45;13.60;;;12.30;99.90;;;;;;4883269;29;20522;-79
2023/05/25 06:43:06;;;;;;;82.00;12.77;;;12.30;99.90;;;;;;4883361;29;20202;-79
2023/05/25 06:45:32;;;;;;;87.80;13.03;;;12.40;99.90;;;;;;4882919;29;20455;-79
2023/05/25 06:47:57;;;;;;;82.27;12.90;;;12.40;99.90;;;;;;4882553;29;20189;-79
2023/05/25 06:50:23;;;;;;;81.63;12.63;;;12.50;99.90;;;;;;4883408;29;20539;-79
2023/05/25 06:52:49;;;;;;;82.53;14.17;;;12.50;99.90;;;;;;4883102;29;20181;-80
2023/05/25 06:55:15;;;;;;;90.65;15.68;;;12.50;99.90;;;;;;4881581;29;20175;-79
2023/05/25 06:57:43;;;;;;;82.90;14.50;;;12.50;99.90;;;;;;4883153;29;20558;-80
2023/05/25 07:00:12;;;;;;;84.60;15.32;;;12.60;99.90;;;;;;4882006;29;20781;-79
2023/05/25 07:02:38;;;;;;;92.40;14.38;;;12.70;99.90;;;;;;4882598;29;20194;-79
2023/05/25 07:05:05;;;;;;;89.50;13.82;;;12.80;99.90;;;;;;4881402;29;20174;-79
2023/05/25 07:07:31;;;;;;;86.18;12.77;;;12.90;99.90;;;;;;4881019;29;20191;-79
2023/05/25 07:09:57;;;;;;;83.53;13.13;;;13.00;99.90;;;;;;4880951;29;20171;-79
2023/05/25 07:12:23;;;;;;;83.27;11.73;;;12.90;99.90;;;;;;4882746;29;20235;-79
2023/05/25 07:14:48;;;;;;;82.67;11.77;;;12.90;99.90;;;;;;4882186;29;20194;-79
2023/05/25 07:17:15;;;;;;;87.20;12.70;;;13.00;99.90;;;;;;4881090;29;20202;-79
2023/05/25 07:19:42;;;;;;;94.38;12.07;;;13.10;99.90;;;;;;4880862;29;20174;-79
2023/05/25 07:22:10;;;;;;;82.60;12.73;;;13.10;99.90;;;;;;4882589;29;20253;-79
2023/05/25 07:24:36;;;;;;;86.20;12.33;;;13.10;99.90;;;;;;4882139;29;20875;-79
2023/05/25 07:27:02;;;;;;;91.10;13.30;;;13.20;99.90;;;;;;4882267;29;20820;-78
2023/05/25 07:29:28;;;;;;;82.90;12.23;;;13.20;99.90;;;;;;4882158;29;20431;-79
2023/05/25 07:31:53;;;;;;;87.00;12.47;;;13.20;99.90;;;;;;4882055;29;20817;-79
2023/05/25 07:34:19;;;;;;;83.83;13.10;;;13.30;99.90;;;;;;4882585;29;20162;-79
2023/05/25 07:36:45;;;;;;;83.30;13.00;;;13.40;99.90;;;;;;4880285;29;20681;-79
2023/05/25 07:39:11;;;;;;;79.80;12.57;;;13.40;99.90;;;;;;4882145;29;20193;-79
2023/05/25 07:41:37;;;;;;;84.40;12.90;;;13.40;99.90;;;;;;4881641;29;20408;-79
2023/05/25 07:44:03;;;;;;;82.90;13.53;;;13.50;99.90;;;;;;4880712;29;20635;-79
2023/05/25 07:46:29;;;;;;;81.00;12.93;;;13.70;99.90;;;;;;4881657;29;20469;-80
2023/05/25 07:48:57;;;;;;;84.23;12.23;;;13.70;98.90;;;;;;4881973;29;20399;-79
2023/05/25 07:51:25;;;;;;;85.87;13.07;;;13.70;94.60;;;;;;4880455;29;20942;-79
2023/05/25 07:53:52;;;;;;;80.67;12.67;;;13.80;93.10;;;;;;4880732;29;20426;-79
2023/05/25 07:56:19;;;;;;;84.90;13.30;;;13.80;91.90;;;;;;4881511;29;20451;-79
2023/05/25 07:58:45;;;;;;;84.33;12.63;;;13.80;88.90;;;;;;4882179;29;20408;-80
2023/05/25 08:01:10;;;;;;;85.07;12.60;;;13.80;77.20;;;;;;4881702;29;20891;-79
2023/05/25 08:03:36;;;;;;;77.10;11.43;;;13.90;74.70;;;;;;4880211;29;20178;-79
2023/05/25 08:06:02;;;;;;;81.60;11.73;;;13.90;85.20;;;;;;4881230;29;20241;-79
2023/05/25 08:08:27;;;;;;;78.83;12.10;;;13.90;91.20;;;;;;4881700;29;20175;-80
2023/05/25 08:10:53;;;;;;;81.90;12.87;;;14.00;91.50;;;;;;4881975;29;20171;-79
2023/05/25 08:13:19;;;;;;;76.73;10.93;;;14.10;65.90;;;;;;4880350;29;20553;-79
2023/05/25 08:15:45;;;;;;;77.63;9.40;;;14.10;55.10;;;;;;4880086;29;20516;-79
2023/05/25 08:18:13;;;;;;;78.37;11.03;;;14.10;59.10;;;;;;4881615;29;20166;-80
2023/05/25 08:20:41;;;;;;;75.83;9.70;;;14.30;62.50;;;;;;4881868;29;20407;-78
2023/05/25 08:23:07;;;;;;;78.40;9.70;;;14.40;42.50;;;;;;4879706;29;20411;-80
2023/05/25 08:25:32;;;;;;;81.70;11.87;;;14.50;50.20;;;;;;4880181;29;20461;-80
2023/05/25 08:27:58;;;;;;;79.93;10.53;;;14.70;46.10;;;;;;4880507;29;20567;-79
2023/05/25 08:30:24;;;;;;;87.97;12.90;;;14.90;55.40;;;;;;4882053;29;20178;-79
2023/05/25 08:32:49;;;;;;;85.77;12.00;;;15.10;50.30;;;;;;4881598;29;20594;-79
2023/05/25 08:35:16;;;;;;;84.90;11.37;;;15.20;47.10;;;;;;4881555;29;20171;-80
2023/05/25 08:37:42;;;;;;;84.37;11.80;;;15.30;25.60;;;;;;4879760;29;20191;-79
2023/05/25 08:40:14;;;;;;;76.97;10.37;;;15.40;31.70;;;;;;4881459;29;20432;-79
2023/05/25 08:42:44;;;;;;;80.13;11.03;;;15.50;28.10;;;;;;4881289;29;20381;-79
2023/05/25 08:45:10;;;;;;;77.00;11.23;;;15.70;22.70;;;;;;4881589;29;20389;-79
2023/05/25 08:47:41;;;;;;;81.53;10.73;;;15.70;12.50;;;;;;4879835;29;20811;-79
2023/05/25 08:50:11;;;;;;;77.30;10.77;;;15.70;9.10;;;;;;4881131;29;20403;-79
2023/05/25 08:52:43;;;;;;;78.57;10.73;;;15.70;10.70;;;;;;4882154;29;20414;-80
2023/05/25 08:55:10;;;;;;;82.90;11.77;;;15.80;6.00;;;;;;4881261;29;20401;-80
2023/05/25 08:57:48;;;;;;;83.50;10.97;;;15.90;6.60;;;;;;4879672;29;20476;-80
2023/05/25 09:00:15;;;;;;;89.27;13.07;;;15.90;5.70;;;;;;4880014;29;20758;-80
2023/05/25 09:03:00;;;;;;;81.60;14.70;;;16.00;2.50;;;;;;4880880;29;20777;-79
2023/05/25 09:05:26;;;;;;;82.40;15.80;;;16.10;1.00;;;;;;4879731;29;20460;-79
2023/05/25 09:07:55;;;;;;;89.00;12.40;;;16.20;1.00;;;;;;4880687;29;20489;-79
2023/05/25 09:10:22;;;;;;;79.23;11.10;;;16.30;1.00;;;;;;4881274;29;20395;-79
2023/05/25 09:12:50;;;;;;;77.13;12.90;;;16.40;1.00;;;;;;4881169;29;20423;-79
2023/05/25 09:15:16;;;;;;;74.20;10.67;;;16.50;1.00;;;;;;4879843;29;20422;-79
2023/05/25 09:17:41;;;;;;;77.50;12.17;;;16.60;1.00;;;;;;4883950;29;20432;-79
2023/05/25 09:20:12;;;;;;;82.43;12.87;;;16.70;1.00;;;;;;4884897;29;20466;-80
2023/05/25 09:22:39;;;;;;;78.43;11.37;;;16.70;1.00;;;;;;4883257;29;20173;-80
2023/05/25 09:25:09;;;;;;;72.27;9.63;;;16.80;1.00;;;;;;4883895;29;20445;-80
2023/05/25 09:27:36;;;;;;;73.57;9.97;;;16.80;1.00;;;;;;4884598;29;20456;-80
2023/05/25 09:30:03;;;;;;;81.57;10.80;;;16.70;1.00;;;;;;4884400;29;20411;-80
2023/05/25 09:32:29;;;;;;;76.97;10.57;;;16.70;1.00;;;;;;4884854;29;20415;-80
2023/05/25 09:35:05;;;;;;;79.90;9.70;;;16.80;1.00;;;;;;4884004;29;20420;-80
2023/05/25 09:37:31;;;;;;;79.67;8.90;;;16.90;1.00;;;;;;4883340;29;20486;-80
2023/05/25 09:39:57;;;;;;;81.10;10.10;;;16.90;1.00;;;;;;4948588;23;20499;-78
2023/05/25 09:42:22;;;;;;;76.77;10.17;;;16.90;1.00;;;;;;4883583;29;20481;-78
2023/05/25 09:44:48;;;;;;;74.10;9.10;;;17.00;1.00;;;;;;4883507;29;20233;-78
2023/05/25 09:47:16;;;;;;;77.23;9.77;;;17.10;1.00;;;;;;4883594;29;20211;-78
2023/05/25 09:49:43;;;;;;;78.47;9.20;;;17.20;1.00;;;;;;4883615;29;20406;-78
2023/05/25 09:52:11;;;;;;;75.50;9.50;;;17.40;1.00;;;;;;4882221;29;20419;-78
2023/05/25 09:54:38;;;;;;;76.93;9.03;;;17.60;1.00;;;;;;4883034;29;20411;-78
2023/05/25 09:57:05;;;;;;;81.73;10.23;;;17.60;1.00;;;;;;4883297;29;20479;-78
2023/05/25 09:59:31;;;;;;;74.57;8.53;;;17.50;1.00;;;;;;4883245;29;20408;-78
2023/05/25 10:01:57;;;;;;;75.77;9.63;;;17.50;1.00;;;;;;4883308;29;20463;-78
2023/05/25 10:04:23;;;;;;;75.90;7.73;;;17.80;1.00;;;;;;4883415;29;20771;-78
2023/05/25 10:06:50;;;;;;;73.97;8.07;;;18.20;1.00;;;;;;4883355;29;20463;-78
2023/05/25 10:09:18;;;;;;;79.13;8.03;;;18.60;1.00;;;;;;4883513;29;20661;-78
2023/05/25 10:11:44;;;;;;;73.90;7.80;;;19.20;1.00;;;;;;4883048;29;20463;-78
2023/05/25 10:14:18;;;;;;;74.37;8.77;;;19.40;1.00;;;;;;4882997;29;20407;-78
2023/05/25 10:16:48;;;;;;;75.80;9.33;;;19.20;1.00;;;;;;4881902;29;21126;-78
2023/05/25 10:19:21;;;;;;;78.30;8.57;;;18.70;1.00;;;;;;4882859;29;20403;-78
2023/05/25 10:21:57;;;;;;;74.90;8.40;;;18.70;1.00;;;;;;4882896;29;20388;-78
2023/05/25 10:24:33;;;;;;;73.63;8.40;;;18.70;1.00;;;;;;4883227;29;20439;-78
2023/05/25 10:27:02;;;;;;;81.37;10.10;;;18.60;1.00;;;;;;4882522;29;20450;-78
2023/05/25 10:29:30;;;;;;;85.07;8.87;;;18.60;1.00;;;;;;4883094;29;20464;-78
2023/05/25 10:31:58;;;;;;;76.87;9.20;;;18.60;1.00;;;;;;4883507;29;20964;-78
2023/05/25 10:34:25;;;;;;;73.27;8.37;;;19.00;1.00;;;;;;4882909;29;20418;-78
2023/05/25 10:36:53;;;;;;;74.87;9.80;;;19.50;1.00;;;;;;4882608;29;20491;-78
2023/05/25 10:39:20;;;;;;;83.07;10.97;;;19.70;1.00;;;;;;4882646;29;20513;-78
2023/05/25 10:41:47;;;;;;;73.93;8.90;;;19.40;1.00;;;;;;4882781;29;20422;-78
2023/05/25 10:44:13;;;;;;;79.43;9.70;;;19.30;1.00;;;;;;4883727;29;20391;-78
2023/05/25 10:46:40;;;;;;;78.07;10.10;;;19.20;1.00;;;;;;4883626;29;20501;-78
2023/05/25 10:49:05;;;;;;;83.80;10.17;;;19.10;1.00;;;;;;4883361;29;20416;-78
2023/05/25 10:51:38;;;;;;;74.60;9.90;;;19.10;1.00;;;;;;4883262;29;20768;-79
2023/05/25 10:54:04;;;;;;;78.23;12.53;;;19.40;1.00;;;;;;4881729;29;20185;-79
2023/05/25 10:56:30;;;;;;;75.63;13.00;;;19.50;1.00;;;;;;4883826;29;20780;-78
2023/05/25 10:58:56;;;;;;;75.50;13.13;;;19.80;1.00;;;;;;4883257;29;20166;-78
2023/05/25 11:01:22;;;;;;;74.43;10.80;;;20.00;1.00;;;;;;4883838;29;20714;-78
2023/05/25 11:04:10;;;;;;;72.87;10.77;;;20.10;1.00;;;;;;4883750;29;20407;-78
2023/05/25 11:06:36;;;;;;;76.03;11.43;;;20.00;1.00;;;;;;4883140;29;20202;-78
2023/05/25 11:09:02;;;;;;;75.87;11.37;;;19.80;1.00;;;;;;4882870;29;21007;-78
2023/05/25 11:11:47;;;;;;;82.87;12.10;;;19.70;1.00;;;;;;4882653;29;20415;-79
2023/05/25 11:14:32;;;;;;;81.33;11.73;;;19.60;1.00;;;;;;4883021;29;20411;-78
2023/05/25 11:17:10;;;;;;;77.27;10.80;;;19.60;1.00;;;;;;4882357;29;20423;-78
2023/05/25 11:19:42;;;;;;;81.87;12.97;;;19.90;1.00;;;;;;4883761;29;20927;-78
2023/05/25 11:22:22;;;;;;;77.50;13.23;;;20.00;1.00;;;;;;4882557;29;20463;-78
2023/05/25 11:24:52;;;;;;;73.10;11.40;;;20.20;1.00;;;;;;4882937;29;20414;-78
2023/05/25 11:27:26;;;;;;;82.47;12.90;;;20.10;1.00;;;;;;4883018;29;20465;-78
2023/05/25 11:29:53;;;;;;;77.67;11.70;;;19.90;1.00;;;;;;4883554;29;20411;-78
2023/05/25 11:32:19;;;;;;;78.57;12.60;;;20.00;1.00;;;;;;4883271;29;20403;-77
2023/05/25 11:34:51;;;;;;;75.87;12.10;;;20.00;1.00;;;;;;4881496;29;20415;-78
2023/05/25 11:37:23;;;;;;;79.87;12.77;;;20.00;1.00;;;;;;4882711;29;20431;-78
2023/05/25 11:39:50;;;;;;;76.00;10.93;;;19.70;1.00;;;;;;4881911;29;20836;-78
2023/05/25 11:42:18;;;;;;;80.17;12.17;;;19.50;1.00;;;;;;4882275;29;20415;-78
2023/05/25 11:44:44;;;;;;;76.77;12.33;;;19.80;1.00;;;;;;4882381;29;20931;-78
2023/05/25 11:47:17;;;;;;;74.37;11.70;;;20.00;1.00;;;;;;4881941;29;20550;-78
2023/05/25 11:49:45;;;;;;;79.00;12.13;;;20.20;1.00;;;;;;4880848;29;20160;-79
2023/05/25 11:52:13;;;;;;;77.40;11.10;;;20.60;1.00;;;;;;4881660;29;20411;-78
2023/05/25 11:54:41;;;;;;;74.00;11.03;;;20.60;1.00;;;;;;4880716;29;20468;-78
2023/05/25 11:57:18;;;;;;;73.70;10.60;;;20.60;1.00;;;;;;4882228;29;20957;-78
2023/05/25 11:59:56;;;;;;;76.63;11.40;;;20.60;1.00;;;;;;4882163;29;20406;-79
2023/05/25 12:02:22;;;;;;;76.27;10.90;;;20.80;1.00;;;;;;4882427;29;20396;-78
2023/05/25 12:05:00;;;;;;;77.57;11.03;;;20.80;1.00;;;;;;4882394;29;20413;-78
2023/05/25 12:07:27;;;;;;;79.40;11.57;;;20.60;1.00;;;;;;4882116;29;20463;-79
2023/05/25 12:10:07;;;;;;;74.90;10.57;;;20.00;1.00;;;;;;4882048;29;20421;-79
2023/05/25 12:12:44;;;;;;;76.07;11.53;;;19.80;1.00;;;;;;4882090;29;20416;-78
2023/05/25 12:15:15;;;;;;;75.60;10.90;;;19.70;1.00;;;;;;4883579;29;20406;-79
2023/05/25 12:17:42;;;;;;;81.30;10.43;;;19.70;1.00;;;;;;4884438;29;20455;-79
2023/05/25 12:20:09;;;;;;;73.20;10.10;;;19.70;1.00;;;;;;4881684;29;20497;-79
2023/05/25 12:22:36;;;;;;;76.20;10.40;;;19.80;1.00;;;;;;4880582;29;20785;-78
2023/05/25 12:25:04;;;;;;;76.43;12.30;;;19.70;1.00;;;;;;4881587;29;20797;-78
2023/05/25 12:27:30;;;;;;;74.90;11.60;;;19.70;1.00;;;;;;4881364;29;20463;-79
2023/05/25 12:29:58;;;;;;;76.03;11.20;;;19.70;1.00;;;;;;4880596;29;21039;-78
2023/05/25 12:32:23;;;;;;;79.37;12.33;;;19.60;1.00;;;;;;4880569;29;20258;-78
2023/05/25 12:34:49;;;;;;;77.57;11.33;;;19.80;1.00;;;;;;4880464;29;20452;-78
2023/05/25 12:37:20;;;;;;;75.63;11.23;;;19.80;1.00;;;;;;4880272;29;20227;-79
2023/05/25 12:39:46;;;;;;;75.53;11.87;;;19.50;1.00;;;;;;4881409;29;20195;-78
2023/05/25 12:42:14;;;;;;;74.17;11.67;;;19.40;1.00;;;;;;4881894;29;20414;-78
2023/05/25 12:44:41;;;;;;;76.47;11.30;;;19.30;1.00;;;;;;4881698;29;20410;-78
2023/05/25 12:47:16;;;;;;;74.80;10.53;;;19.40;1.00;;;;;;4880960;29;20455;-78
2023/05/25 12:49:44;;;;;;;77.83;11.17;;;19.60;1.00;;;;;;4880733;29;20860;-79
2023/05/25 12:52:10;;;;;;;75.10;10.70;;;19.70;1.00;;;;;;4885310;29;20426;-78
2023/05/25 12:54:44;;;;;;;72.90;10.90;;;19.80;1.00;;;;;;4885172;29;20439;-78
2023/05/25 12:57:14;;;;;;;77.20;10.97;;;19.90;1.00;;;;;;4885522;29;21013;-78
2023/05/25 12:59:42;;;;;;;74.77;12.03;;;20.10;1.00;;;;;;4885522;29;20396;-79
2023/05/25 13:02:09;;;;;;;79.77;12.60;;;20.10;1.00;;;;;;4884911;29;20498;-79
2023/05/25 13:04:36;;;;;;;76.80;11.87;;;19.80;1.00;;;;;;4885615;29;20419;-79
2023/05/25 13:07:03;;;;;;;73.60;10.87;;;19.80;1.00;;;;;;4885309;29;20537;-79
2023/05/25 13:09:28;;;;;;;76.00;10.97;;;20.00;1.00;;;;;;4885372;29;20419;-78
2023/05/25 13:11:55;;;;;;;77.47;11.17;;;20.00;1.00;;;;;;4885221;29;20927;-79
2023/05/25 13:14:21;;;;;;;76.67;12.30;;;20.00;1.00;;;;;;4885334;29;20170;-78
2023/05/25 13:16:48;;;;;;;83.63;15.50;;;20.00;1.00;;;;;;4885106;29;20458;-78
2023/05/25 13:19:14;;;;;;;78.40;11.70;;;20.20;1.00;;;;;;4884917;29;20516;-79
2023/05/25 13:21:39;;;;;;;74.57;10.77;;;20.20;1.00;;;;;;4884890;29;20415;-79
2023/05/25 13:24:06;;;;;;;78.57;13.17;;;20.20;1.00;;;;;;4884544;29;20175;-79
2023/05/25 13:26:31;;;;;;;80.93;15.10;;;20.20;1.00;;;;;;4884305;29;20211;-78
2023/05/25 13:28:57;;;;;;;79.67;12.77;;;20.00;1.00;;;;;;4884356;29;20419;-79
2023/05/25 13:31:22;;;;;;;80.83;14.03;;;19.80;1.00;;;;;;4883196;29;20544;-79
2023/05/25 13:33:48;;;;;;;80.97;14.27;;;19.70;1.00;;;;;;4884476;29;20662;-79